Time;durP1;ratioP1;P1;durP2;ratioP2;P2;SDS_P1;SDS_P2;PMS_P1;PMS_P2;Temp;Humidity;BMP_temperature;BMP_pressure;BME280_temperature;BME280_humidity;BME280_pressure;Samples;Min_cycle;Max_cycle;Signal;HPM_P1;HPM_P2
2022/11/26 00:00:24;;;;;;;;;21.00;15.50;;;;;9.34;82.04;101707.44;5094368;27;45523;-75
2022/11/26 00:02:50;;;;;;;;;24.25;22.75;;;;;9.20;82.09;101686.66;5096640;27;45469;-76
2022/11/26 00:05:16;;;;;;;;;28.50;26.00;;;;;9.22;81.93;101691.13;5096597;27;45350;-76
2022/11/26 00:07:51;;;;;;;;;10.00;8.75;;;;;9.09;81.78;101665.22;5094002;27;45356;-77
2022/11/26 00:10:22;;;;;;;;;4.00;3.00;;;;;9.13;81.84;101677.59;5097012;27;45518;-77
2022/11/26 00:12:48;;;;;;;;;3.25;3.25;;;;;9.00;81.87;101664.72;5096496;27;46169;-77
2022/11/26 00:15:25;;;;;;;;;3.00;2.00;;;;;9.06;82.10;101684.19;5096509;27;45424;-77
2022/11/26 00:17:52;;;;;;;;;4.50;4.00;;;;;8.78;82.65;101649.63;5095686;27;45285;-77
2022/11/26 00:20:31;;;;;;;;;7.50;7.50;;;;;9.03;82.20;101680.50;5096785;27;45435;-76
2022/11/26 00:23:01;;;;;;;;;3.00;2.00;;;;;8.96;82.76;101676.69;5095727;27;45434;-76
2022/11/26 00:25:40;;;;;;;;;1.75;1.00;;;;;8.93;82.28;101673.91;5096387;27;45272;-83
2022/11/26 00:28:23;;;;;;;;;1.50;1.50;;;;;8.91;82.30;101680.75;5095956;27;45543;-77
2022/11/26 00:30:48;;;;;;;;;4.00;3.00;;;;;8.88;82.73;101678.88;5099860;27;45404;-77
2022/11/26 00:33:14;;;;;;;;;4.25;3.00;;;;;8.85;82.80;101681.28;5099626;27;45970;-77
2022/11/26 00:35:39;;;;;;;;;3.00;2.00;;;;;8.82;82.71;101677.66;5100654;27;45347;-77
2022/11/26 00:38:05;;;;;;;;;2.25;2.00;;;;;8.80;82.62;101681.88;5100791;27;45388;-77
2022/11/26 00:40:32;;;;;;;;;2.00;2.00;;;;;8.77;82.64;101682.59;5100381;27;45365;-77
2022/11/26 00:42:58;;;;;;;;;4.00;2.00;;;;;8.75;82.38;101690.34;5099961;27;45359;-77
2022/11/26 00:45:28;;;;;;;;;3.00;3.00;;;;;8.75;82.54;101694.63;5100478;27;45529;-77
2022/11/26 00:47:54;;;;;;;;;5.25;3.50;;;;;8.71;82.42;101690.06;5100917;27;45490;-77
2022/11/26 00:50:25;;;;;;;;;4.00;3.00;;;;;8.67;82.51;101695.91;5099032;27;45428;-77
2022/11/26 00:52:54;;;;;;;;;2.75;2.00;;;;;8.57;82.59;101689.28;5099199;27;45378;-75
2022/11/26 00:55:29;;;;;;;;;4.75;2.25;;;;;8.58;82.70;101692.81;5099432;27;45499;-77
2022/11/26 00:57:55;;;;;;;;;10.50;7.50;;;;;8.58;82.88;101700.63;5099832;27;45535;-76
2022/11/26 01:00:27;;;;;;;;;5.25;4.00;;;;;8.53;82.68;101702.94;5099710;27;45529;-76
2022/11/26 01:02:53;;;;;;;;;8.50;5.25;;;;;8.35;82.50;101676.72;5099724;27;45525;-77
2022/11/26 01:05:20;;;;;;;;;9.75;7.00;;;;;8.48;82.79;101705.31;5099318;27;45408;-76
2022/11/26 01:07:47;;;;;;;;;7.50;7.00;;;;;8.44;82.93;101695.53;5099011;27;45567;-76
2022/11/26 01:10:27;;;;;;;;;3.50;3.50;;;;;8.42;82.79;101670.22;5099357;27;45486;-77
2022/11/26 01:12:54;;;;;;;;;2.50;2.00;;;;;8.42;82.76;101650.28;5097800;27;45300;-77
2022/11/26 01:15:23;;;;;;;;;3.00;1.75;;;;;8.41;82.81;101637.13;5099347;27;45331;-76
2022/11/26 01:17:50;;;;;;;;;2.00;2.00;;;;;8.41;82.77;101640.66;5099014;27;45510;-76
2022/11/26 01:20:25;;;;;;;;;2.50;2.00;;;;;8.40;81.81;101637.97;5099379;27;45294;-77
2022/11/26 01:22:52;;;;;;;;;1.50;1.00;;;;;8.45;82.77;101637.41;5097034;27;46101;-76
2022/11/26 01:25:18;;;;;;;;;1.50;1.00;;;;;8.46;82.70;101641.81;5098997;27;45387;-77
2022/11/26 01:27:44;;;;;;;;;2.00;1.00;;;;;8.46;82.77;101647.03;5096504;27;46009;-77
2022/11/26 01:30:20;;;;;;;;;1.00;0.75;;;;;8.13;82.66;101592.19;5099250;27;45772;-77
2022/11/26 01:32:46;;;;;;;;;1.50;0.75;;;;;8.42;82.61;101647.66;5096930;27;46106;-77
2022/11/26 01:35:12;;;;;;;;;2.00;1.25;;;;;8.41;82.52;101640.66;5099642;27;45477;-77
2022/11/26 01:37:38;;;;;;;;;2.00;1.00;;;;;8.40;83.44;101650.97;5099922;27;46093;-77
2022/11/26 01:40:49;;;;;;;;;0.75;0.75;;;;;8.37;83.68;101656.88;5100129;27;45450;-77
2022/11/26 01:43:21;;;;;;;;;7.00;6.75;;;;;8.35;83.33;101666.31;5091568;27;45502;-77
2022/11/26 01:45:47;;;;;;;;;6.50;6.25;;;;;8.36;83.25;101663.81;5101027;27;45249;-77
2022/11/26 01:48:32;;;;;;;;;2.50;2.50;;;;;8.39;83.51;101652.66;5100458;27;45387;-77
2022/11/26 01:51:06;;;;;;;;;3.00;2.00;;;;;8.45;83.08;101646.94;5101566;27;45325;-77
2022/11/26 01:53:55;;;;;;;;;0.33;0.33;;;;;8.46;82.88;101641.81;5099524;27;45532;-75
2022/11/26 01:56:31;;;;;;;;;0.67;0.00;;;;;8.50;82.89;101638.56;5099277;27;45175;-77
2022/11/26 01:59:08;;;;;;;;;1.25;0.75;;;;;8.50;82.87;101635.97;5100939;27;45368;-76
2022/11/26 02:01:35;;;;;;;;;3.75;3.00;;;;;8.47;83.03;101630.56;5100244;27;45517;-77
2022/11/26 02:04:16;;;;;;;;;6.00;4.00;;;;;8.39;82.85;101628.34;5100066;27;45271;-79
2022/11/26 02:06:43;;;;;;;;;2.50;2.00;;;;;8.48;82.76;101647.13;5099839;27;46003;-77
2022/11/26 02:09:10;;;;;;;;;1.33;1.00;;;;;8.40;82.76;101649.25;5099933;27;45325;-78
2022/11/26 02:11:36;;;;;;;;;2.33;1.00;;;;;8.22;82.74;101625.69;5100126;27;45329;-76
2022/11/26 02:14:24;;;;;;;;;1.00;1.00;;;;;8.35;83.13;101661.09;5100430;27;46260;-78
2022/11/26 02:17:01;;;;;;;;;1.00;1.00;;;;;8.34;83.44;101664.53;5099395;27;45409;-77
2022/11/26 02:19:35;;;;;;;;;1.00;1.00;;;;;8.36;83.42;101655.09;5100120;27;45453;-77
2022/11/26 02:22:31;;;;;;;;;2.25;1.00;;;;;8.38;83.68;101653.47;5100361;27;45337;-78
2022/11/26 02:25:10;;;;;;;;;1.75;0.50;;;;;8.39;83.55;101638.75;5099418;27;45423;-77
2022/11/26 02:28:12;;;;;;;;;0.75;0.50;;;;;8.39;83.68;101637.03;5099610;27;45517;-76
2022/11/26 02:31:01;;;;;;;;;1.00;1.00;;;;;8.38;83.19;101642.19;5100276;27;45481;-77
2022/11/26 02:33:40;;;;;;;;;0.00;0.00;;;;;8.39;83.37;101638.75;5100159;27;45501;-77
2022/11/26 02:36:24;;;;;;;;;1.00;0.00;;;;;8.39;83.23;101636.16;5100711;27;45413;-76
2022/11/26 02:38:49;;;;;;;;;1.00;0.00;;;;;8.39;83.02;101631.81;5099454;27;45387;-77
2022/11/26 02:41:15;;;;;;;;;1.00;0.00;;;;;8.40;83.52;101636.25;5100017;27;45233;-78
2022/11/26 02:43:41;;;;;;;;;0.00;0.00;;;;;8.41;83.28;101630.25;5103339;27;45501;-77
2022/11/26 02:46:18;;;;;;;;;0.00;0.00;;;;;8.23;83.25;101598.81;5102048;27;46246;-76
2022/11/26 02:48:49;;;;;;;;;2.00;1.00;;;;;8.38;82.88;101622.25;5098911;27;45602;-69
2022/11/26 02:51:23;;;;;;;;;0.00;0.00;;;;;8.34;82.70;101612.47;5098816;27;45359;-77
2022/11/26 02:53:50;;;;;;;;;1.00;1.00;;;;;8.28;82.69;101606.91;5099292;27;45247;-77
2022/11/26 02:56:25;;;;;;;;;2.00;1.00;;;;;8.21;82.58;101604.78;5098818;27;45771;-74
2022/11/26 02:58:53;;;;;;;;;1.00;1.00;;;;;8.10;82.55;101597.25;5098572;27;45311;-77
2022/11/26 03:01:27;;;;;;;;;1.00;0.00;;;;;7.97;82.88;101593.03;5099674;27;45325;-76
2022/11/26 03:03:57;;;;;;;;;1.00;0.00;;;;;7.97;83.13;101610.38;5099347;27;45341;-77
2022/11/26 03:06:26;;;;;;;;;1.00;0.00;;;;;7.64;83.18;101559.88;5098645;27;46253;-78
2022/11/26 03:08:53;;;;;;;;;0.00;0.00;;;;;7.90;83.12;101621.25;5098465;27;45282;-75
2022/11/26 03:11:19;;;;;;;;;0.00;0.00;;;;;7.85;83.46;101623.56;5098685;27;45343;-75
2022/11/26 03:13:46;;;;;;;;;0.00;0.00;;;;;7.85;83.24;101617.47;5099192;27;45458;-77
2022/11/26 03:16:12;;;;;;;;;1.00;1.00;;;;;7.85;83.82;101612.25;5098620;27;45473;-77
2022/11/26 03:18:37;;;;;;;;;1.00;1.00;;;;;7.86;83.72;101601.97;5098414;27;45584;-77
2022/11/26 03:21:03;;;;;;;;;1.00;1.00;;;;;7.90;84.16;101608.25;5098810;27;45313;-77
2022/11/26 03:23:28;;;;;;;;;0.50;0.50;;;;;7.92;83.77;101598.81;5098597;27;45350;-77
2022/11/26 03:25:54;;;;;;;;;1.00;0.00;;;;;7.63;83.60;101556.38;5098150;27;45856;-77
2022/11/26 03:28:19;;;;;;;;;5.50;3.75;;;;;7.94;83.53;101625.81;5098074;27;45528;-76
2022/11/26 03:30:45;;;;;;;;;1.50;1.00;;;;;7.93;83.42;101637.00;5098308;27;45471;-75
2022/11/26 03:33:10;;;;;;;;;1.00;1.00;;;;;7.91;83.41;101636.03;5098332;27;45628;-77
2022/11/26 03:35:36;;;;;;;;;1.25;0.00;;;;;7.85;82.92;101610.56;5098339;27;45450;-77
2022/11/26 03:38:01;;;;;;;;;0.00;0.00;;;;;7.79;82.98;101606.72;5097903;27;45574;-73
2022/11/26 03:40:27;;;;;;;;;0.00;0.00;;;;;7.48;83.24;101550.28;5098041;27;45340;-76
2022/11/26 03:42:52;;;;;;;;;1.00;0.00;;;;;7.60;83.66;101576.13;5098072;27;45407;-77
2022/11/26 03:45:18;;;;;;;;;0.33;0.33;;;;;7.66;84.29;101590.41;5097917;27;45908;-76
2022/11/26 03:47:44;;;;;;;;;0.00;0.00;;;;;7.61;84.02;101594.41;5097778;27;45430;-75
2022/11/26 03:50:09;;;;;;;;;1.00;1.00;;;;;7.55;83.54;101589.75;5097343;27;45565;-77
2022/11/26 03:52:35;;;;;;;;;1.33;1.00;;;;;7.49;83.60;101588.50;5098046;27;45443;-77
2022/11/26 03:55:00;;;;;;;;;1.00;1.00;;;;;7.46;83.93;101598.69;5097518;27;45456;-77
2022/11/26 03:57:26;;;;;;;;;2.00;0.00;;;;;7.40;84.29;101586.25;5097632;27;45366;-78
2022/11/26 03:59:52;;;;;;;;;1.00;1.00;;;;;7.42;83.96;101599.31;5097829;27;45226;-76
2022/11/26 04:02:17;;;;;;;;;1.00;1.00;;;;;7.40;83.92;101614.84;5097905;27;45281;-77
2022/11/26 04:04:43;;;;;;;;;3.00;0.00;;;;;7.32;84.12;101604.00;5100098;27;45398;-77
2022/11/26 04:07:08;;;;;;;;;2.00;0.67;;;;;7.37;84.35;101614.66;5100091;27;45425;-71
2022/11/26 04:09:34;;;;;;;;;0.00;0.00;;;;;7.37;84.32;101618.16;5101450;27;45272;-78
2022/11/26 04:11:59;;;;;;;;;0.00;0.00;;;;;7.26;84.34;101616.63;5101568;27;45366;-78
2022/11/26 04:14:25;;;;;;;;;0.00;0.00;;;;;7.30;84.52;101626.41;5100910;27;45332;-77
2022/11/26 04:16:51;;;;;;;;;0.00;0.00;;;;;7.33;84.43;101613.56;5100987;27;45488;-76
2022/11/26 04:19:16;;;;;;;;;1.00;0.00;;;;;7.41;85.02;101610.56;5101117;27;45401;-77
2022/11/26 04:21:42;;;;;;;;;0.75;0.75;;;;;7.46;85.00;101611.69;5101155;27;45349;-76
2022/11/26 04:24:08;;;;;;;;;0.75;0.00;;;;;7.51;84.65;101599.88;5101117;27;45282;-77
2022/11/26 04:26:33;;;;;;;;;1.00;1.00;;;;;7.52;84.15;101594.78;5101101;27;45527;-76
2022/11/26 04:28:59;;;;;;;;;24.75;20.00;;;;;7.55;84.16;101591.47;5100826;27;45384;-77
2022/11/26 04:31:24;;;;;;;;;6.50;3.75;;;;;7.59;84.01;101595.13;5101003;27;45312;-77
2022/11/26 04:33:50;;;;;;;;;1.50;1.50;;;;;7.60;83.99;101589.13;5100542;27;45869;-76
2022/11/26 04:36:16;;;;;;;;;1.75;1.00;;;;;7.62;83.64;101593.63;5100751;27;45566;-77
2022/11/26 04:38:41;;;;;;;;;6.00;6.00;;;;;7.57;83.07;101605.44;5100987;27;45200;-75
2022/11/26 04:41:07;;;;;;;;;7.25;4.75;;;;;7.58;83.43;101604.66;5101175;27;45303;-77
2022/11/26 04:43:33;;;;;;;;;3.25;3.00;;;;;7.54;83.00;101600.97;5100376;27;45317;-77
2022/11/26 04:45:58;;;;;;;;;0.00;0.00;;;;;7.49;83.16;101605.00;5100458;27;45395;-76
2022/11/26 04:48:24;;;;;;;;;0.00;0.00;;;;;7.48;83.01;101607.50;5100645;27;45395;-78
2022/11/26 04:50:49;;;;;;;;;0.00;0.00;;;;;7.50;83.44;101605.88;5100858;27;45328;-78
2022/11/26 04:53:15;;;;;;;;;1.00;0.00;;;;;7.52;83.09;101599.97;5100210;27;46198;-77
2022/11/26 04:55:42;;;;;;;;;1.00;0.00;;;;;7.55;83.09;101602.75;5100868;27;45297;-78
2022/11/26 04:58:08;;;;;;;;;0.00;0.00;;;;;7.56;83.10;101606.28;5101005;27;45433;-77
2022/11/26 05:00:34;;;;;;;;;0.00;0.00;;;;;7.33;83.28;101576.28;5100645;27;45615;-78
2022/11/26 05:02:59;;;;;;;;;0.00;0.00;;;;;7.53;83.05;101611.28;5100150;27;45292;-78
2022/11/26 05:05:24;;;;;;;;;1.00;1.00;;;;;7.55;82.52;101602.75;5100095;27;45414;-78
2022/11/26 05:07:50;;;;;;;;;0.00;0.00;;;;;7.57;82.93;101608.94;5100411;27;45449;-78
2022/11/26 05:10:16;;;;;;;;;1.00;0.00;;;;;7.56;83.24;101609.75;5100356;27;45511;-78
2022/11/26 05:12:41;;;;;;;;;0.00;0.00;;;;;7.62;83.22;101617.03;5100491;27;45491;-75
2022/11/26 05:15:07;;;;;;;;;1.67;0.00;;;;;7.65;83.27;101621.50;5099754;27;45471;-77
2022/11/26 05:17:33;;;;;;;;;0.00;0.00;;;;;7.65;83.25;101613.69;5100240;27;45243;-78
2022/11/26 05:19:58;;;;;;;;;1.00;1.00;;;;;7.71;83.21;101630.56;5100367;27;45226;-76
2022/11/26 05:22:24;;;;;;;;;2.00;2.00;;;;;7.73;82.79;101623.75;5099891;27;46185;-77
2022/11/26 05:24:49;;;;;;;;;2.00;2.00;;;;;7.73;82.75;101621.13;5099849;27;45262;-77
2022/11/26 05:27:15;;;;;;;;;2.33;1.00;;;;;7.72;82.77;101608.06;5100206;27;45160;-77
2022/11/26 05:29:40;;;;;;;;;2.00;2.00;;;;;7.74;82.33;101604.75;5100634;27;45385;-77
2022/11/26 05:32:06;;;;;;;;;0.50;0.50;;;;;7.74;82.14;101598.66;5099589;27;46141;-77
2022/11/26 05:34:31;;;;;;;;;3.00;3.00;;;;;7.74;82.00;101596.06;5099746;27;45815;-77
2022/11/26 05:36:57;;;;;;;;;3.25;1.25;;;;;7.74;82.25;101601.25;5099888;27;45328;-77
2022/11/26 05:39:22;;;;;;;;;2.00;1.00;;;;;7.74;81.99;101609.94;5099927;27;45431;-77
2022/11/26 05:41:48;;;;;;;;;1.00;0.00;;;;;7.75;81.99;101609.13;5099430;27;45372;-77
2022/11/26 05:44:13;;;;;;;;;0.25;0.00;;;;;7.74;82.04;101602.13;5099911;27;45510;-77
2022/11/26 05:46:41;;;;;;;;;1.00;0.00;;;;;7.71;81.96;101620.16;5100211;27;45376;-78
2022/11/26 05:49:07;;;;;;;;;0.00;0.00;;;;;7.72;82.02;101623.66;5099724;27;45268;-77
2022/11/26 05:51:33;;;;;;;;;1.33;0.00;;;;;7.69;82.16;101618.28;5099198;27;45488;-77
2022/11/26 05:53:58;;;;;;;;;0.00;0.00;;;;;7.64;82.23;101615.41;5099416;27;45575;-77
2022/11/26 05:56:24;;;;;;;;;0.00;0.00;;;;;7.63;81.89;101617.91;5100267;27;45306;-78
2022/11/26 05:58:49;;;;;;;;;1.00;0.00;;;;;7.61;82.15;101607.41;5099980;27;45623;-78
2022/11/26 06:01:15;;;;;;;;;0.00;0.00;;;;;7.60;82.37;101607.31;5100295;27;45936;-70
2022/11/26 06:03:41;;;;;;;;;0.00;0.00;;;;;7.56;82.61;101606.28;5099766;27;45306;-77
2022/11/26 06:06:06;;;;;;;;;2.00;0.33;;;;;7.56;82.51;101624.47;5099379;27;45380;-78
2022/11/26 06:08:32;;;;;;;;;0.00;0.00;;;;;7.57;82.50;101618.44;5099659;27;45477;-76
2022/11/26 06:10:58;;;;;;;;;0.00;0.00;;;;;7.54;82.62;101611.38;5099204;27;45420;-78
2022/11/26 06:13:23;;;;;;;;;0.00;0.00;;;;;7.56;82.44;101601.06;5099204;27;45550;-78
2022/11/26 06:15:49;;;;;;;;;0.00;0.00;;;;;7.55;82.43;101602.75;5099252;27;45370;-76
2022/11/26 06:18:15;;;;;;;;;0.50;0.00;;;;;7.53;82.53;101608.66;5099736;27;45459;-76
2022/11/26 06:20:40;;;;;;;;;1.00;0.00;;;;;7.56;82.68;101620.16;5099039;27;46005;-77
2022/11/26 06:23:06;;;;;;;;;2.00;1.00;;;;;7.42;82.71;101586.31;5098931;27;45427;-77
2022/11/26 06:25:31;;;;;;;;;0.00;0.00;;;;;7.36;82.44;101587.78;5098592;27;45442;-77
2022/11/26 06:27:57;;;;;;;;;2.00;2.00;;;;;7.59;82.09;101634.16;5098644;27;45456;-77
2022/11/26 06:30:23;;;;;;;;;1.00;0.75;;;;;7.47;82.15;101621.31;5098736;27;45339;-76
2022/11/26 06:32:48;;;;;;;;;2.00;1.25;;;;;7.57;82.35;101644.44;5098880;27;45256;-76
2022/11/26 06:35:14;;;;;;;;;3.25;2.00;;;;;7.55;82.21;101659.06;5099214;27;45453;-77
2022/11/26 06:37:40;;;;;;;;;13.00;11.25;;;;;7.54;82.03;101645.19;5098815;27;45376;-77
2022/11/26 06:40:08;;;;;;;;;78.50;58.25;;;;;7.49;81.94;101635.31;5098655;27;46333;-77
2022/11/26 06:42:33;;;;;;;;;4.25;3.00;;;;;7.48;81.90;101633.50;5098605;27;45340;-77
2022/11/26 06:44:59;;;;;;;;;5.50;5.50;;;;;7.41;82.24;101626.16;5097245;27;45414;-78
2022/11/26 06:47:24;;;;;;;;;3.50;3.50;;;;;7.39;82.33;101613.06;5098316;27;45519;-76
2022/11/26 06:49:50;;;;;;;;;6.75;5.50;;;;;7.38;82.41;101613.84;5097738;27;46133;-78
2022/11/26 06:52:15;;;;;;;;;6.25;6.00;;;;;7.18;82.49;101581.44;5098058;27;45956;-77
2022/11/26 06:54:41;;;;;;;;;6.00;4.00;;;;;7.30;82.29;101616.00;5097845;27;45496;-77
2022/11/26 06:57:06;;;;;;;;;2.00;2.00;;;;;7.11;82.23;101595.78;5097975;27;45531;-74
2022/11/26 06:59:32;;;;;;;;;1.00;1.00;;;;;7.14;82.34;101598.59;5097597;27;46094;-75
2022/11/26 07:01:58;;;;;;;;;0.00;0.00;;;;;7.07;82.80;101587.72;5097635;27;45306;-77
2022/11/26 07:04:23;;;;;;;;;0.00;0.00;;;;;7.15;83.09;101591.69;5098037;27;45818;-78
2022/11/26 07:06:49;;;;;;;;;0.00;0.00;;;;;7.16;82.83;101593.47;5098122;27;45529;-70
2022/11/26 07:09:14;;;;;;;;;5.75;3.75;;;;;7.07;83.21;101578.22;5097895;27;45367;-76
2022/11/26 07:11:41;;;;;;;;;3.00;2.00;;;;;7.17;83.09;101580.56;5097530;27;45601;-77
2022/11/26 07:14:07;;;;;;;;;2.00;1.00;;;;;7.19;82.83;101566.78;5094949;27;45441;-77
2022/11/26 07:16:33;;;;;;;;;2.00;1.00;;;;;7.19;82.51;101567.66;5097629;27;45428;-77
2022/11/26 07:18:59;;;;;;;;;3.00;2.00;;;;;7.01;82.54;101530.19;5097285;27;46062;-77
2022/11/26 07:21:27;;;;;;;;;2.50;2.00;;;;;7.05;82.54;101538.25;5097401;27;45324;-78
2022/11/26 07:23:53;;;;;;;;;19.25;18.00;;;;;7.15;82.47;101551.00;5097420;27;45312;-75
2022/11/26 07:26:20;;;;;;;;;33.75;32.25;;;;;7.15;82.29;101540.59;5097782;27;45533;-78
2022/11/26 07:28:47;;;;;;;;;47.50;39.25;;;;;6.91;82.61;101494.97;5094365;27;45602;-77
2022/11/26 07:31:15;;;;;;;;;39.50;34.50;;;;;7.23;82.40;101535.88;5097115;27;45577;-75
2022/11/26 07:33:41;;;;;;;;;19.50;15.75;;;;;7.12;81.93;101513.53;5097255;27;45557;-78
2022/11/26 07:36:19;;;;;;;;;11.25;10.25;;;;;7.20;82.10;101533.06;5097600;27;45358;-77
2022/11/26 07:38:45;;;;;;;;;4.25;3.00;;;;;7.26;82.04;101520.47;5096751;27;45543;-73
2022/11/26 07:41:16;;;;;;;;;5.00;4.25;;;;;7.32;82.02;101517.31;5097062;27;45279;-70
2022/11/26 07:43:42;;;;;;;;;4.25;2.50;;;;;7.10;81.82;101473.56;5097152;27;45293;-75
2022/11/26 07:46:11;;;;;;;;;2.75;2.75;;;;;7.33;81.43;101524.31;5097358;27;45377;-69
2022/11/26 07:48:38;;;;;;;;;1.75;1.25;;;;;7.22;82.05;101499.38;5096751;27;46241;-77
2022/11/26 07:51:05;;;;;;;;;3.00;2.00;;;;;7.44;82.31;101538.84;5096615;27;45822;-77
2022/11/26 07:53:32;;;;;;;;;1.00;1.00;;;;;7.54;81.27;101542.84;5097180;27;45389;-75
2022/11/26 07:55:58;;;;;;;;;3.50;2.00;;;;;7.46;81.60;101562.31;5099094;27;45449;-77
2022/11/26 07:58:24;;;;;;;;;0.33;0.00;;;;;7.55;81.50;101575.84;5098138;27;45268;-77
2022/11/26 08:00:49;;;;;;;;;0.00;0.00;;;;;7.67;81.23;101580.88;5097739;27;45502;-78
2022/11/26 08:03:15;;;;;;;;;6.75;4.00;;;;;7.83;81.44;101580.06;5098474;27;45450;-78
2022/11/26 08:05:42;;;;;;;;;0.50;0.50;;;;;7.72;80.48;101541.31;5097065;27;45472;-77
2022/11/26 08:08:08;;;;;;;;;1.00;1.00;;;;;8.03;80.00;101587.28;5098182;27;46167;-74
2022/11/26 08:10:33;;;;;;;;;0.33;0.33;;;;;7.85;80.28;101535.09;5095923;27;45429;-77
2022/11/26 08:12:59;;;;;;;;;2.00;2.00;;;;;8.18;80.23;101558.66;5097231;27;45430;-77
2022/11/26 08:15:24;;;;;;;;;2.00;1.00;;;;;8.28;79.48;101547.94;5098220;27;45437;-77
2022/11/26 08:17:54;;;;;;;;;1.50;1.00;;;;;8.34;78.92;101527.44;5084471;27;45927;-78
2022/11/26 08:20:20;;;;;;;;;2.75;2.00;;;;;8.35;78.98;101491.88;5077156;27;45480;-77
2022/11/26 08:22:45;;;;;;;;;1.00;0.67;;;;;8.51;78.95;101475.41;5076856;27;45468;-77
2022/11/26 08:25:11;;;;;;;;;0.67;0.00;;;;;8.75;77.36;101470.59;5077891;27;45429;-77
2022/11/26 08:27:37;;;;;;;;;1.00;1.00;;;;;8.88;76.21;101459.09;5092879;27;46884;-78
2022/11/26 08:30:04;;;;;;;;;1.00;1.00;;;;;9.13;75.69;101474.25;5090532;27;45547;-78
2022/11/26 08:32:29;;;;;;;;;30.50;28.50;;;;;9.05;75.22;101454.72;5096123;27;45375;-73
2022/11/26 08:34:55;;;;;;;;;23.00;21.50;;;;;9.04;75.66;101466.00;5096475;27;45552;-76
2022/11/26 08:37:20;;;;;;;;;30.50;25.00;;;;;9.10;76.04;101461.09;5096455;27;46423;-73
2022/11/26 08:39:46;;;;;;;;;59.50;47.00;;;;;9.26;75.56;101463.63;5096124;27;45511;-72
2022/11/26 08:42:11;;;;;;;;;8.75;8.25;;;;;9.18;75.15;101423.25;5096117;27;45420;-75
2022/11/26 08:44:37;;;;;;;;;4.00;3.00;;;;;9.60;74.61;101467.03;5096353;27;45358;-70
2022/11/26 08:47:02;;;;;;;;;3.67;3.00;;;;;9.70;74.65;101470.13;5096342;27;45513;-77
2022/11/26 08:49:28;;;;;;;;;20.50;17.50;;;;;9.78;73.92;101475.72;5098052;27;45393;-76
2022/11/26 08:51:56;;;;;;;;;70.50;54.00;;;;;9.75;74.41;101479.09;5077450;27;45502;-72
2022/11/26 08:54:22;;;;;;;;;39.50;34.50;;;;;9.78;75.05;101467.00;5059206;28;45560;-76
2022/11/26 08:56:48;;;;;;;;;10.00;8.75;;;;;9.80;74.68;101470.59;5058731;28;46412;-78
2022/11/26 08:59:15;;;;;;;;;29.25;28.00;;;;;9.73;74.64;101466.81;5058621;28;45484;-77
2022/11/26 09:01:40;;;;;;;;;9.00;9.00;;;;;9.58;75.27;101466.06;5059026;28;45549;-78
2022/11/26 09:04:06;;;;;;;;;21.50;20.50;;;;;9.39;76.10;101469.47;5058371;28;45566;-74
2022/11/26 09:06:33;;;;;;;;;24.00;21.50;;;;;9.27;75.85;101472.34;5058285;28;46232;-80
2022/11/26 09:09:12;;;;;;;;;4.25;4.25;;;;;9.32;76.86;101466.56;5058487;28;45351;-79
2022/11/26 09:11:50;;;;;;;;;2.67;1.33;;;;;9.93;74.05;101459.91;5056982;28;45363;-79
2022/11/26 09:14:19;;;;;;;;;1.00;1.00;;;;;10.81;73.10;101459.56;5056599;28;45630;-71
2022/11/26 09:16:45;;;;;;;;;3.00;2.00;;;;;11.34;68.96;101411.25;5058420;28;45567;-74
2022/11/26 09:19:12;;;;;;;;;31.50;28.00;;;;;12.12;67.38;101452.75;5057237;28;45362;-74
2022/11/26 09:21:38;;;;;;;;;55.25;46.75;;;;;12.75;67.15;101443.66;5058443;28;45439;-71
2022/11/26 09:24:04;;;;;;;;;141.75;133.00;;;;;13.68;65.72;101443.31;5058491;28;45564;-72
2022/11/26 09:26:31;;;;;;;;;11.33;10.33;;;;;14.36;60.49;101439.22;5058241;28;46071;-73
2022/11/26 09:28:56;;;;;;;;;9.25;8.50;;;;;14.35;57.33;101425.19;5058008;28;45540;-71
2022/11/26 09:31:23;;;;;;;;;2.67;2.67;;;;;14.50;56.61;101438.78;5058288;28;45432;-75
2022/11/26 09:33:48;;;;;;;;;22.50;21.00;;;;;14.78;57.37;101405.38;5058446;28;45543;-75
2022/11/26 09:36:15;;;;;;;;;1.67;1.67;;;;;15.13;54.98;101418.53;5057899;28;45296;-78
2022/11/26 09:38:41;;;;;;;;;25.75;25.50;;;;;15.91;55.28;101444.13;5058404;28;45184;-78
2022/11/26 09:41:07;;;;;;;;;6.67;6.00;;;;;16.66;53.88;101441.28;5058279;28;45314;-78
2022/11/26 09:44:03;;;;;;;;;3.67;2.67;;;;;17.49;52.61;101427.81;5058518;28;45364;-78
2022/11/26 09:46:48;;;;;;;;;16.33;15.33;;;;;17.84;52.06;101419.53;5058815;28;46080;-77
2022/11/26 09:49:16;;;;;;;;;19.33;18.67;;;;;17.91;51.55;101425.81;5058488;28;45245;-78
2022/11/26 09:51:45;;;;;;;;;13.00;12.67;;;;;17.87;51.97;101402.88;5058146;28;45558;-78
2022/11/26 09:54:17;;;;;;;;;8.67;7.00;;;;;18.01;51.87;101417.16;5059484;28;45410;-74
2022/11/26 09:56:43;;;;;;;;;8.33;7.00;;;;;18.01;52.71;101406.56;5057690;28;46192;-82
2022/11/26 09:59:16;;;;;;;;;10.00;9.33;;;;;17.94;53.14;101420.56;5055086;28;45200;-78
2022/11/26 10:01:42;;;;;;;;;6.00;6.00;;;;;17.89;53.15;101420.50;5058051;28;45576;-79
2022/11/26 10:04:22;;;;;;;;;6.33;5.00;;;;;17.79;53.91;101413.28;5058560;28;45491;-79
2022/11/26 10:06:53;;;;;;;;;3.00;2.33;;;;;17.81;53.49;101416.84;5058372;28;45599;-79
2022/11/26 10:09:38;;;;;;;;;9.67;7.00;;;;;17.76;53.03;101402.66;5058403;28;45255;-79
2022/11/26 10:12:22;;;;;;;;;10.33;10.00;;;;;17.47;53.23;101366.16;5058405;28;45562;-77
2022/11/26 10:15:02;;;;;;;;;12.67;11.00;;;;;17.70;52.78;101411.38;5058623;28;45227;-79
2022/11/26 10:17:49;;;;;;;;;8.67;7.33;;;;;17.77;54.04;101416.78;5058198;28;46046;-77
2022/11/26 10:20:52;;;;;;;;;3.67;3.00;;;;;17.88;54.73;101416.06;5058210;28;45401;-79
2022/11/26 10:23:35;;;;;;;;;1.33;1.33;;;;;17.99;53.96;101416.25;5041255;28;45524;-79
2022/11/26 10:26:11;;;;;;;;;5.67;5.67;;;;;18.00;53.57;101419.75;5057796;28;45512;-81
2022/11/26 10:28:46;;;;;;;;;1.67;1.33;;;;;17.92;53.57;101416.13;5057531;28;45870;-79
2022/11/26 10:31:31;;;;;;;;;20.67;18.67;;;;;17.66;53.81;101414.84;5057415;28;45484;-76
2022/11/26 10:34:03;;;;;;;;;8.33;8.00;;;;;17.46;54.86;101416.31;5057271;28;45714;-72
2022/11/26 10:36:36;;;;;;;;;3.00;3.00;;;;;17.39;54.76;101407.41;5057526;28;45495;-76
2022/11/26 10:39:01;;;;;;;;;11.67;11.67;;;;;17.12;55.31;101399.94;5056666;28;45488;-75
2022/11/26 10:41:32;;;;;;;;;34.50;31.75;;;;;17.23;55.53;101408.00;5055663;28;45504;-74
2022/11/26 10:44:38;;;;;;;;;11.00;11.00;;;;;17.27;56.20;101394.03;5057397;28;45408;-71
2022/11/26 10:47:21;;;;;;;;;5.67;5.67;;;;;17.72;55.85;101407.91;5057148;28;45515;-71
2022/11/26 10:49:48;;;;;;;;;3.00;3.00;;;;;18.05;55.07;101412.78;5050573;28;45357;-73
2022/11/26 10:52:26;;;;;;;;;1.33;0.67;;;;;18.32;54.57;101404.28;5057008;28;45445;-74
2022/11/26 10:55:14;;;;;;;;;0.67;0.67;;;;;18.54;54.63;101401.91;5055857;28;45466;-76
2022/11/26 10:57:46;;;;;;;;;0.67;0.67;;;;;18.71;54.54;101402.97;5057087;28;45441;-75
2022/11/26 11:00:36;;;;;;;;;0.67;0.67;;;;;18.87;53.81;101401.41;5056022;28;45394;-74
2022/11/26 11:03:05;;;;;;;;;6.00;4.00;;;;;18.77;52.59;101388.91;5055402;28;45624;-72
2022/11/26 11:05:31;;;;;;;;;1.00;1.00;;;;;18.68;52.19;101408.22;5055932;28;45602;-74
2022/11/26 11:07:57;;;;;;;;;4.33;4.33;;;;;18.37;53.83;101384.09;5056485;28;45495;-74
2022/11/26 11:10:25;;;;;;;;;2.00;1.00;;;;;18.51;54.48;101408.06;5053294;28;46015;-73
2022/11/26 11:13:01;;;;;;;;;1.33;0.67;;;;;18.43;54.08;101417.66;5055605;28;45620;-73
2022/11/26 11:15:30;;;;;;;;;1.33;0.00;;;;;18.34;54.56;101413.13;5054376;28;45559;-73
2022/11/26 11:18:03;;;;;;;;;0.67;0.00;;;;;18.28;54.60;101407.78;5056903;28;45362;-74
2022/11/26 11:20:36;;;;;;;;;8.67;7.00;;;;;18.24;53.88;101408.63;5054315;28;45407;-71
2022/11/26 11:23:11;;;;;;;;;9.00;7.67;;;;;18.19;53.99;101399.75;5056169;28;45437;-71
2022/11/26 11:25:40;;;;;;;;;3.00;2.33;;;;;18.24;54.06;101393.66;5056246;28;45418;-73
2022/11/26 11:28:17;;;;;;;;;1.67;0.67;;;;;18.21;53.95;101375.09;5056492;28;45326;-70
2022/11/26 11:30:43;;;;;;;;;0.67;0.67;;;;;18.11;53.13;101370.56;5055946;28;46114;-73
2022/11/26 11:33:19;;;;;;;;;2.67;1.33;;;;;17.97;54.10;101369.50;5056105;28;45537;-75
2022/11/26 11:36:02;;;;;;;;;1.33;1.33;;;;;18.06;54.92;101366.97;5054719;28;45511;-71
2022/11/26 11:38:31;;;;;;;;;0.67;0.67;;;;;18.15;55.04;101358.28;5054662;28;45540;-71